Wetterdaten: Woche 06.06.16 - 12.06.16 (KW23)
Datum Zeit Temp. A. Feuchte A. Luftdruck Regen Wind Richtung Taupunkt Windchill Windben
06.06.2016 00:00 14,9 C 96 % 1017,7 hPa 0,0 l/m 0,1 km/h (0 Bft) S-SO 14,3 C 14,9 C 0,9 km/h (0 Bft)
06.06.2016 01:00 14,2 C 97 % 1017,5 hPa 0,0 l/m 0,1 km/h (0 Bft) S-SO 13,7 C 14,2 C 0,9 km/h (0 Bft)
06.06.2016 02:00 13,9 C 97 % 1017,5 hPa 0,0 l/m 0,1 km/h (0 Bft) S-SO 13,5 C 13,9 C 0,8 km/h (0 Bft)
06.06.2016 03:00 13,8 C 97 % 1017,4 hPa 0,0 l/m 0,4 km/h (0 Bft) S-SO 13,4 C 13,8 C 1,5 km/h (1 Bft)
06.06.2016 04:00 13,1 C 97 % 1017,4 hPa 0,0 l/m 0,4 km/h (0 Bft) S-SO 12,6 C 13,1 C 2,0 km/h (1 Bft)
06.06.2016 05:00 12,3 C 97 % 1017,7 hPa 0,0 l/m 0,5 km/h (0 Bft) S-SO 11,9 C 12,3 C 2,0 km/h (1 Bft)
06.06.2016 06:00 12,0 C 98 % 1017,9 hPa 0,0 l/m 0,1 km/h (0 Bft) S-SO 11,7 C 12,0 C 0,9 km/h (0 Bft)
06.06.2016 07:00 12,6 C 98 % 1018,2 hPa 0,0 l/m 0,1 km/h (0 Bft) S-SO 12,3 C 12,6 C 0,8 km/h (0 Bft)
06.06.2016 08:00 14,7 C 98 % 1018,4 hPa 0,0 l/m 1,1 km/h (1 Bft) N 14,4 C 14,7 C 3,1 km/h (1 Bft)
06.06.2016 09:00 16,6 C 92 % 1018,6 hPa 0,0 l/m 1,5 km/h (1 Bft) N-NO 15,3 C 16,6 C 3,4 km/h (1 Bft)
06.06.2016 10:00 19,8 C 77 % 1018,5 hPa 0,0 l/m 2,9 km/h (1 Bft) W-SW 15,5 C 19,8 C 6,4 km/h (2 Bft)
06.06.2016 11:00 21,3 C 67 % 1018,4 hPa 0,0 l/m 3,4 km/h (1 Bft) NW 14,9 C 21,3 C 7,7 km/h (2 Bft)
06.06.2016 12:00 22,5 C 61 % 1018,4 hPa 0,0 l/m 3,4 km/h (1 Bft) S-SW 14,5 C 22,5 C 6,5 km/h (2 Bft)
06.06.2016 13:00 23,2 C 57 % 1018,1 hPa 0,0 l/m 4,7 km/h (1 Bft) NW 14,2 C 23,1 C 8,8 km/h (2 Bft)
06.06.2016 14:00 23,4 C 58 % 1017,8 hPa 0,0 l/m 4,0 km/h (1 Bft) NW 14,5 C 23,3 C 7,8 km/h (2 Bft)
06.06.2016 15:00 22,9 C 58 % 1017,5 hPa 0,0 l/m 3,2 km/h (1 Bft) W-NW 14,1 C 22,9 C 6,1 km/h (2 Bft)
06.06.2016 16:00 23,9 C 53 % 1017,1 hPa 0,0 l/m 3,7 km/h (1 Bft) W-NW 13,8 C 23,9 C 7,6 km/h (2 Bft)
06.06.2016 17:00 24,1 C 53 % 1017,0 hPa 0,0 l/m 3,3 km/h (1 Bft) NW 13,8 C 24,1 C 6,5 km/h (2 Bft)
06.06.2016 18:00 24,1 C 51 % 1016,7 hPa 0,0 l/m 3,2 km/h (1 Bft) NW 13,3 C 24,1 C 6,0 km/h (2 Bft)
06.06.2016 19:00 23,2 C 50 % 1017,0 hPa 0,0 l/m 2,9 km/h (1 Bft) SW 12,2 C 23,2 C 6,0 km/h (2 Bft)
06.06.2016 20:00 21,6 C 56 % 1017,5 hPa 0,0 l/m 1,0 km/h (0 Bft) SW 12,3 C 21,6 C 2,3 km/h (1 Bft)
06.06.2016 21:00 18,8 C 70 % 1017,7 hPa 0,0 l/m 0,0 km/h (0 Bft) N 13,3 C 18,8 C 0,2 km/h (0 Bft)
06.06.2016 22:00 15,5 C 83 % 1018,2 hPa 0,0 l/m 0,0 km/h (0 Bft) SW 12,6 C 15,5 C 0,5 km/h (0 Bft)
06.06.2016 23:00 13,6 C 89 % 1018,4 hPa 0,0 l/m 0,0 km/h (0 Bft) SW 11,8 C 13,6 C 0,2 km/h (0 Bft)
07.06.2016 00:00 12,7 C 91 % 1018,6 hPa 0,0 l/m 0,0 km/h (0 Bft) SW 11,2 C 12,7 C 0,0 km/h (0 Bft)
07.06.2016 01:00 11,8 C 93 % 1018,7 hPa 0,0 l/m 0,1 km/h (0 Bft) SW 10,7 C 11,8 C 0,5 km/h (0 Bft)
07.06.2016 02:00 11,1 C 94 % 1018,8 hPa 0,0 l/m 0,0 km/h (0 Bft) SW 10,2 C 11,1 C 0,3 km/h (0 Bft)
07.06.2016 03:00 10,8 C 95 % 1018,9 hPa 0,0 l/m 0,0 km/h (0 Bft) SW 10,0 C 10,8 C 0,2 km/h (0 Bft)
07.06.2016 04:00 10,4 C 95 % 1019,0 hPa 0,0 l/m 0,0 km/h (0 Bft) SW 9,6 C 10,4 C 0,3 km/h (0 Bft)
07.06.2016 05:00 10,1 C 96 % 1019,3 hPa 0,0 l/m 0,0 km/h (0 Bft) SW 9,5 C 10,1 C 0,3 km/h (0 Bft)
07.06.2016 06:00 10,1 C 96 % 1019,5 hPa 0,0 l/m 0,0 km/h (0 Bft) N 9,5 C 10,1 C 0,0 km/h (0 Bft)
Min-Datum _ 07.06.16 06.06.16 06.06.16 - 07.06.16 - 07.06.16 07.06.16 07.06.16
_ Min-Zeit 06:00 19:03 18:26 - 06:00 - 05:00 06:00 06:00
Minimum _ 10,1 C 49 % 1016,6 hPa - 0,0 km/h (0 Bft) - 9,3 C 10,1 C 0,0 km/h (0 Bft)
Max-Datum _ 06.06.16 06.06.16 07.06.16 07.06.16 06.06.16 - 06.06.16 06.06.16 06.06.16
_ Max-Zeit 17:00 08:00 06:05 06:00 13:56 - 09:40 17:00 13:56
Maximum _ 25,0 C 98 % 1019,6 hPa 0,0 l/m 12,9 km/h
NW (3 Bft)
- 16,1 C 25,0 C 20,9 km/h
NW (4 Bft)
Durchschnitt _ 16,5 C 81 % 1018,0 hPa #0,0 l/m 1,3 km/h (1 Bft) SW 12,7 C 16,5 C 2,9 km/h (1 Bft)